Time;durP1;ratioP1;P1;durP2;ratioP2;P2;SDS_P1;SDS_P2;PMS_P1;PMS_P2;Temp;Humidity;BMP_temperature;BMP_pressure;BME280_temperature;BME280_humidity;BME280_pressure;Samples;Min_cycle;Max_cycle;Signal;HPM_P1;HPM_P2
2020/12/05 00:01:21;;;;;;;10.15;4.53;;;2.60;87.40;;;;;;4971378;28;20035;-72
2020/12/05 00:03:47;;;;;;;11.95;4.78;;;2.60;87.30;;;;;;4995258;28;20067;-72
2020/12/05 00:06:12;;;;;;;9.32;4.72;;;2.60;87.30;;;;;;4973074;28;20481;-72
2020/12/05 00:08:38;;;;;;;11.23;4.68;;;2.60;87.20;;;;;;4971437;28;20038;-71
2020/12/05 00:11:04;;;;;;;11.18;4.60;;;2.60;87.20;;;;;;4970440;28;20077;-71
2020/12/05 00:13:29;;;;;;;10.98;4.47;;;2.60;87.20;;;;;;4991912;28;20042;-71
2020/12/05 00:15:55;;;;;;;10.98;4.63;;;2.60;87.20;;;;;;4982361;28;20036;-71
2020/12/05 00:18:20;;;;;;;10.65;4.80;;;2.60;87.30;;;;;;4975903;28;20035;-71
2020/12/05 00:20:47;;;;;;;11.35;4.55;;;2.60;87.20;;;;;;4974546;28;20042;-73
2020/12/05 00:23:15;;;;;;;8.60;4.22;;;2.50;87.30;;;;;;4977018;28;20549;-72
2020/12/05 00:25:40;;;;;;;8.93;4.38;;;2.50;87.30;;;;;;4969882;28;20038;-71
2020/12/05 00:28:06;;;;;;;8.35;4.50;;;2.50;87.40;;;;;;4976098;28;20474;-71
2020/12/05 00:30:33;;;;;;;9.45;4.25;;;2.40;87.40;;;;;;4975075;28;20043;-71
2020/12/05 00:33:00;;;;;;;9.55;4.20;;;2.50;87.80;;;;;;4986538;28;20027;-71
2020/12/05 00:35:27;;;;;;;11.43;4.63;;;2.50;87.70;;;;;;4976506;28;20043;-70
2020/12/05 00:37:53;;;;;;;10.35;4.30;;;2.60;87.60;;;;;;4995834;28;20038;-72
2020/12/05 00:40:19;;;;;;;10.45;4.82;;;2.60;87.60;;;;;;4975326;28;20080;-70
2020/12/05 00:42:45;;;;;;;9.40;4.38;;;2.60;87.70;;;;;;4977268;28;20477;-71
2020/12/05 00:45:10;;;;;;;10.30;4.50;;;2.70;87.70;;;;;;4976565;28;20437;-70
2020/12/05 00:47:36;;;;;;;8.57;4.55;;;2.70;87.60;;;;;;4973628;28;20037;-71
2020/12/05 00:50:02;;;;;;;9.32;5.07;;;2.70;87.50;;;;;;4995366;28;20038;-71
2020/12/05 00:52:28;;;;;;;11.27;4.93;;;2.80;87.50;;;;;;4974846;28;20046;-74
2020/12/05 00:54:53;;;;;;;9.55;4.88;;;2.90;87.50;;;;;;4968896;28;20043;-71
2020/12/05 00:57:19;;;;;;;10.25;4.82;;;2.90;87.40;;;;;;4977221;28;20031;-71
2020/12/05 00:59:45;;;;;;;10.43;4.95;;;3.00;87.30;;;;;;5028996;28;20045;-72
2020/12/05 01:02:10;;;;;;;10.63;5.47;;;3.10;87.20;;;;;;4987961;28;20031;-71
2020/12/05 01:04:36;;;;;;;12.57;5.43;;;3.10;87.20;;;;;;5010186;28;20035;-74
2020/12/05 01:07:01;;;;;;;11.82;4.75;;;3.10;87.10;;;;;;5010166;28;20050;-70
2020/12/05 01:09:27;;;;;;;11.10;5.18;;;3.20;87.00;;;;;;4999834;28;20034;-71
2020/12/05 01:11:53;;;;;;;11.80;5.90;;;3.20;87.10;;;;;;5013121;28;20045;-70
2020/12/05 01:14:18;;;;;;;13.27;5.75;;;3.10;87.10;;;;;;5028496;28;20035;-71
2020/12/05 01:16:45;;;;;;;11.63;6.00;;;3.10;87.20;;;;;;4990584;28;20034;-74
2020/12/05 01:19:11;;;;;;;12.40;5.85;;;3.10;87.30;;;;;;4970820;28;20748;-70
2020/12/05 01:21:36;;;;;;;12.05;5.57;;;3.10;87.40;;;;;;4984976;28;20031;-71
2020/12/05 01:24:02;;;;;;;12.60;6.10;;;3.00;87.40;;;;;;4997999;28;20474;-71
2020/12/05 01:26:28;;;;;;;12.20;5.95;;;3.00;87.50;;;;;;4988795;28;20070;-71
2020/12/05 01:28:53;;;;;;;14.60;6.15;;;3.00;87.50;;;;;;4968713;28;20053;-71
2020/12/05 01:31:19;;;;;;;12.13;7.03;;;3.10;87.70;;;;;;4996096;28;20035;-70
2020/12/05 01:33:45;;;;;;;10.73;7.25;;;3.10;87.60;;;;;;5009373;28;20038;-70
2020/12/05 01:36:10;;;;;;;13.80;7.32;;;3.10;87.70;;;;;;5000785;28;20038;-70
2020/12/05 01:38:36;;;;;;;13.27;7.85;;;3.10;87.70;;;;;;4979150;28;20035;-71
2020/12/05 01:41:03;;;;;;;14.27;9.43;;;3.10;87.80;;;;;;5010378;28;20048;-71
2020/12/05 01:43:30;;;;;;;15.93;9.07;;;3.20;87.80;;;;;;5004060;28;20081;-71
2020/12/05 01:46:03;;;;;;;18.52;10.35;;;3.30;87.50;;;;;;5025909;28;20046;-70
2020/12/05 01:48:28;;;;;;;17.20;9.43;;;3.40;87.40;;;;;;5022284;28;20073;-70
2020/12/05 01:50:55;;;;;;;13.65;9.05;;;3.40;87.20;;;;;;5028341;28;20601;-71
2020/12/05 01:53:21;;;;;;;13.13;8.15;;;3.50;87.20;;;;;;5006651;28;20373;-70
2020/12/05 01:55:48;;;;;;;14.85;8.15;;;3.50;87.10;;;;;;4982673;28;20481;-71
2020/12/05 01:58:14;;;;;;;11.25;7.32;;;3.60;87.00;;;;;;4991846;28;20074;-70
2020/12/05 02:00:40;;;;;;;14.45;7.55;;;3.60;87.00;;;;;;4990308;28;20481;-71
2020/12/05 02:03:07;;;;;;;11.70;7.10;;;3.60;86.90;;;;;;4970034;28;20059;-70
2020/12/05 02:05:59;;;;;;;9.98;5.80;;;3.60;86.80;;;;;;4977909;28;20538;-71
2020/12/05 02:08:57;;;;;;;11.57;6.22;;;3.60;87.00;;;;;;4976186;28;20034;-70
2020/12/05 02:11:27;;;;;;;9.63;6.32;;;3.60;87.00;;;;;;5003913;28;20386;-70
2020/12/05 02:13:58;;;;;;;10.00;6.55;;;3.60;87.10;;;;;;4978024;28;20041;-70
2020/12/05 02:16:24;;;;;;;10.82;6.55;;;3.60;86.90;;;;;;5016286;28;20036;-71
2020/12/05 02:18:52;;;;;;;11.63;6.68;;;3.60;86.90;;;;;;4977725;28;20058;-71
2020/12/05 02:21:18;;;;;;;12.43;6.78;;;3.60;87.00;;;;;;5002687;28;20043;-70
2020/12/05 02:23:46;;;;;;;11.90;7.07;;;3.60;86.90;;;;;;4986734;28;20044;-71
2020/12/05 02:26:13;;;;;;;12.15;6.72;;;3.60;87.00;;;;;;4991100;28;20055;-70
2020/12/05 02:28:38;;;;;;;11.45;7.70;;;3.70;86.80;;;;;;4980040;28;20034;-70
2020/12/05 02:31:06;;;;;;;12.73;7.15;;;3.70;86.70;;;;;;4981633;28;20445;-69
2020/12/05 02:33:31;;;;;;;12.48;7.03;;;3.70;86.70;;;;;;4974877;28;20080;-71
2020/12/05 02:35:57;;;;;;;9.65;6.50;;;3.70;86.80;;;;;;5003460;28;20031;-70
2020/12/05 02:38:32;;;;;;;11.15;6.95;;;3.70;86.90;;;;;;5007839;28;20030;-70
2020/12/05 02:40:58;;;;;;;12.70;6.95;;;3.70;86.90;;;;;;4983979;28;20040;-70
2020/12/05 02:43:26;;;;;;;9.93;6.40;;;3.70;87.00;;;;;;4979327;28;20047;-70
2020/12/05 02:45:53;;;;;;;16.08;6.80;;;3.70;86.90;;;;;;4994027;28;20042;-70
2020/12/05 02:48:18;;;;;;;13.48;7.95;;;3.70;86.90;;;;;;5009621;28;20089;-70
2020/12/05 02:50:44;;;;;;;13.60;6.72;;;3.80;87.00;;;;;;5003101;28;20499;-71
2020/12/05 02:53:10;;;;;;;11.15;7.15;;;3.80;87.10;;;;;;4981096;28;20039;-70
2020/12/05 02:55:35;;;;;;;14.40;7.13;;;3.80;87.10;;;;;;4978923;28;20062;-72
2020/12/05 02:58:01;;;;;;;11.50;6.97;;;3.70;87.10;;;;;;4991754;28;20035;-71
2020/12/05 03:00:27;;;;;;;13.70;7.15;;;3.80;87.20;;;;;;4985122;28;20154;-70
2020/12/05 03:02:52;;;;;;;13.70;7.60;;;3.70;87.20;;;;;;5005476;28;20430;-70
2020/12/05 03:05:19;;;;;;;10.82;6.80;;;3.70;87.30;;;;;;4991486;28;20047;-70
2020/12/05 03:07:45;;;;;;;11.48;7.07;;;3.70;87.40;;;;;;4993564;28;20046;-71
2020/12/05 03:10:11;;;;;;;9.98;6.35;;;3.80;87.20;;;;;;4981460;28;20065;-70
2020/12/05 03:12:36;;;;;;;13.70;7.57;;;3.80;87.30;;;;;;4975823;28;20120;-70
2020/12/05 03:15:04;;;;;;;11.90;6.20;;;3.80;87.00;;;;;;5003958;28;20163;-70
2020/12/05 03:17:29;;;;;;;10.82;6.68;;;3.80;86.90;;;;;;4996840;28;20024;-70
2020/12/05 03:19:55;;;;;;;12.38;7.32;;;3.90;86.90;;;;;;5000737;28;20410;-70
2020/12/05 03:22:21;;;;;;;11.48;7.10;;;3.90;87.00;;;;;;4989707;28;20050;-70
2020/12/05 03:24:46;;;;;;;10.55;7.28;;;3.80;87.10;;;;;;4966126;28;20471;-71
2020/12/05 03:27:12;;;;;;;11.95;7.78;;;3.90;87.10;;;;;;4987753;28;20422;-70
2020/12/05 03:29:39;;;;;;;13.02;7.22;;;3.80;87.10;;;;;;4985462;28;20058;-71
2020/12/05 03:32:17;;;;;;;12.40;7.20;;;3.90;87.00;;;;;;4982781;28;20041;-70
2020/12/05 03:34:44;;;;;;;12.90;8.40;;;3.90;87.10;;;;;;4986840;28;20042;-71
2020/12/05 03:37:10;;;;;;;13.48;7.88;;;3.90;87.20;;;;;;4995682;28;20041;-71
2020/12/05 03:39:36;;;;;;;13.05;8.55;;;3.90;87.10;;;;;;4987293;28;20035;-74
2020/12/05 03:42:02;;;;;;;11.98;8.65;;;3.90;87.20;;;;;;4978603;28;20040;-71
2020/12/05 03:44:28;;;;;;;12.38;8.65;;;3.90;87.30;;;;;;4999191;28;20057;-71
2020/12/05 03:46:53;;;;;;;14.90;8.98;;;3.80;87.50;;;;;;5019552;28;20496;-70
2020/12/05 03:49:19;;;;;;;15.38;9.15;;;3.80;87.50;;;;;;4986969;28;20135;-70
2020/12/05 03:51:45;;;;;;;14.00;9.23;;;3.80;87.60;;;;;;4981617;28;20038;-71
2020/12/05 03:54:10;;;;;;;13.23;8.98;;;3.80;87.60;;;;;;4976968;28;20031;-70
2020/12/05 03:56:36;;;;;;;15.77;9.38;;;3.80;87.70;;;;;;4995990;28;20036;-71
2020/12/05 03:59:02;;;;;;;13.63;8.73;;;3.80;87.70;;;;;;4971174;28;20054;-71
2020/12/05 04:01:27;;;;;;;15.05;9.32;;;3.80;87.80;;;;;;4992707;28;20044;-71
2020/12/05 04:03:53;;;;;;;16.50;9.77;;;3.90;87.80;;;;;;4980260;28;20130;-71
2020/12/05 04:06:19;;;;;;;13.30;9.25;;;3.80;87.80;;;;;;4988604;28;20042;-71
2020/12/05 04:08:45;;;;;;;14.00;9.55;;;3.90;87.80;;;;;;5007553;28;20046;-70
2020/12/05 04:11:10;;;;;;;11.77;9.05;;;3.90;87.80;;;;;;5006912;28;20034;-71
2020/12/05 04:13:36;;;;;;;15.15;9.23;;;3.90;87.60;;;;;;4976891;28;20048;-71
2020/12/05 04:16:02;;;;;;;14.25;10.27;;;3.90;87.70;;;;;;4985906;28;20035;-71
2020/12/05 04:18:28;;;;;;;14.32;9.68;;;3.90;87.60;;;;;;4980337;28;20031;-71
2020/12/05 04:20:53;;;;;;;15.98;9.85;;;3.90;87.70;;;;;;4984523;28;20084;-71
2020/12/05 04:23:19;;;;;;;13.82;9.90;;;4.00;87.50;;;;;;4993726;28;20085;-70
2020/12/05 04:25:45;;;;;;;14.45;9.45;;;4.00;87.40;;;;;;5024376;28;20389;-71
2020/12/05 04:28:11;;;;;;;13.70;9.80;;;4.10;87.40;;;;;;4985024;28;20042;-71
2020/12/05 04:30:36;;;;;;;13.95;9.60;;;4.10;87.40;;;;;;4999509;28;20024;-71
2020/12/05 04:33:02;;;;;;;14.27;10.15;;;4.10;87.30;;;;;;4993382;28;21500;-73
2020/12/05 04:35:28;;;;;;;16.17;10.77;;;4.10;87.40;;;;;;4981867;28;20110;-71
2020/12/05 04:37:53;;;;;;;15.73;10.90;;;4.10;87.40;;;;;;4977273;28;20034;-70
2020/12/05 04:40:20;;;;;;;17.10;11.18;;;4.10;87.30;;;;;;5013414;28;20080;-71
2020/12/05 04:42:47;;;;;;;14.57;10.75;;;4.00;86.90;;;;;;5020511;28;20079;-70
2020/12/05 04:45:13;;;;;;;13.88;10.70;;;4.00;87.10;;;;;;5035579;28;20155;-72
2020/12/05 04:47:40;;;;;;;16.25;11.32;;;4.00;87.30;;;;;;5019448;28;20477;-71
2020/12/05 04:50:07;;;;;;;15.63;11.73;;;3.90;87.20;;;;;;4983953;28;20037;-72
2020/12/05 04:52:45;;;;;;;16.35;11.52;;;3.90;87.20;;;;;;4992045;28;20255;-71
2020/12/05 04:55:12;;;;;;;17.92;11.50;;;3.90;87.30;;;;;;5019851;28;20034;-70
2020/12/05 04:57:44;;;;;;;14.18;11.15;;;3.90;87.30;;;;;;5006398;28;20076;-70
2020/12/05 05:00:10;;;;;;;16.55;11.77;;;4.00;87.20;;;;;;4984546;28;20034;-71
2020/12/05 05:02:40;;;;;;;17.92;11.60;;;3.90;87.10;;;;;;4994711;28;20038;-75
2020/12/05 05:05:09;;;;;;;18.27;12.10;;;4.00;87.20;;;;;;4986563;28;20057;-70
2020/12/05 05:07:46;;;;;;;16.17;10.98;;;4.00;87.10;;;;;;4986174;28;20107;-70
2020/12/05 05:10:31;;;;;;;15.75;10.57;;;4.00;87.00;;;;;;5035474;28;20458;-70
2020/12/05 05:13:23;;;;;;;17.98;12.00;;;4.00;87.00;;;;;;4986398;28;20125;-70
2020/12/05 05:15:49;;;;;;;16.27;11.60;;;4.00;86.90;;;;;;5106325;27;20501;-70
2020/12/05 05:18:14;;;;;;;16.90;12.68;;;4.00;86.70;;;;;;5109807;27;20032;-71
2020/12/05 05:20:46;;;;;;;15.15;12.00;;;4.00;86.60;;;;;;5105756;27;20097;-75
2020/12/05 05:23:20;;;;;;;16.83;12.30;;;4.10;86.40;;;;;;5095966;27;20051;-70
2020/12/05 05:25:55;;;;;;;17.33;12.20;;;4.10;86.30;;;;;;4982576;28;20046;-71
2020/12/05 05:28:22;;;;;;;13.98;11.13;;;4.10;86.30;;;;;;4997172;28;20042;-71
2020/12/05 05:30:55;;;;;;;16.27;11.95;;;4.10;86.10;;;;;;4994838;28;20552;-71
2020/12/05 05:33:21;;;;;;;16.70;11.05;;;4.10;86.00;;;;;;5021463;28;20035;-70
2020/12/05 05:35:47;;;;;;;17.25;11.60;;;4.10;86.20;;;;;;4982079;28;20042;-71
2020/12/05 05:38:22;;;;;;;16.38;11.27;;;4.10;86.20;;;;;;4987919;28;20026;-71
2020/12/05 05:40:50;;;;;;;16.08;11.07;;;3.90;86.20;;;;;;4978385;28;20123;-72
2020/12/05 05:43:19;;;;;;;15.38;10.85;;;3.90;86.40;;;;;;4977824;28;20058;-70
2020/12/05 05:45:46;;;;;;;17.02;9.80;;;3.80;86.50;;;;;;4976293;28;20409;-74
2020/12/05 05:48:12;;;;;;;13.27;9.25;;;3.80;86.50;;;;;;4978943;28;20054;-73
2020/12/05 05:50:38;;;;;;;13.27;9.88;;;3.70;86.40;;;;;;4983784;28;20118;-74
2020/12/05 05:53:09;;;;;;;15.65;9.88;;;3.80;86.40;;;;;;4983433;28;20473;-70
2020/12/05 05:55:48;;;;;;;14.00;9.38;;;3.80;86.10;;;;;;5003017;28;20095;-74
2020/12/05 05:58:16;;;;;;;12.77;9.40;;;3.80;85.90;;;;;;4981631;28;20516;-70
2020/12/05 06:00:44;;;;;;;12.90;8.38;;;3.90;85.60;;;;;;4993361;28;20030;-72
2020/12/05 06:03:17;;;;;;;12.07;8.85;;;4.00;85.50;;;;;;4972713;28;20074;-71
2020/12/05 06:05:48;;;;;;;12.35;8.68;;;4.00;85.50;;;;;;4986352;28;20315;-72
2020/12/05 06:08:25;;;;;;;14.35;9.57;;;4.00;85.70;;;;;;4977547;28;20072;-70
2020/12/05 06:11:09;;;;;;;13.85;9.55;;;4.00;85.80;;;;;;4975735;28;20030;-72
2020/12/05 06:13:35;;;;;;;13.07;8.77;;;4.10;85.80;;;;;;4981618;28;20452;-70
2020/12/05 06:16:02;;;;;;;12.90;8.38;;;4.10;85.70;;;;;;4990395;28;20137;-72
2020/12/05 06:18:28;;;;;;;15.63;8.68;;;4.10;85.70;;;;;;5020733;28;20068;-71
2020/12/05 06:20:55;;;;;;;13.05;8.48;;;4.10;85.80;;;;;;4981774;28;20549;-72
2020/12/05 06:23:51;;;;;;;14.32;8.38;;;4.10;85.60;;;;;;4975787;28;20485;-71
2020/12/05 06:26:29;;;;;;;12.68;8.20;;;4.10;85.60;;;;;;4996453;28;20050;-71
2020/12/05 06:28:55;;;;;;;14.32;8.27;;;4.10;85.50;;;;;;4985525;28;20035;-72
2020/12/05 06:31:44;;;;;;;12.23;8.40;;;4.10;85.60;;;;;;4974360;28;20047;-71
2020/12/05 06:34:11;;;;;;;14.55;8.80;;;4.10;85.40;;;;;;4986816;28;20043;-70
2020/12/05 06:36:38;;;;;;;12.65;8.50;;;4.10;85.30;;;;;;4993054;28;20536;-71
2020/12/05 06:39:06;;;;;;;12.18;7.78;;;4.10;85.30;;;;;;5004970;28;20042;-70
2020/12/05 06:41:34;;;;;;;12.40;8.75;;;4.10;85.30;;;;;;4994822;28;20043;-70
2020/12/05 06:44:21;;;;;;;12.18;8.30;;;4.10;85.30;;;;;;4992416;28;20038;-71
2020/12/05 06:46:55;;;;;;;13.55;8.40;;;4.10;85.50;;;;;;4994374;28;20479;-70
2020/12/05 06:49:38;;;;;;;11.95;8.27;;;4.10;85.40;;;;;;4970779;28;20041;-71
2020/12/05 06:52:36;;;;;;;11.07;7.65;;;4.10;85.50;;;;;;5048622;28;20040;-71
2020/12/05 06:55:05;;;;;;;11.13;7.15;;;4.20;85.10;;;;;;5002168;28;20043;-70
2020/12/05 06:57:33;;;;;;;10.88;7.35;;;4.20;84.80;;;;;;4985770;28;20112;-70
2020/12/05 07:00:22;;;;;;;12.10;7.43;;;4.20;85.10;;;;;;4983798;28;20070;-72
2020/12/05 07:02:58;;;;;;;11.45;6.90;;;4.20;85.20;;;;;;4974441;28;20137;-71
2020/12/05 07:05:26;;;;;;;12.27;7.80;;;4.20;85.30;;;;;;4990845;28;20044;-70
2020/12/05 07:07:54;;;;;;;10.85;7.45;;;4.20;85.50;;;;;;4990048;28;20035;-70
2020/12/05 07:10:48;;;;;;;16.75;7.20;;;4.20;85.40;;;;;;5010351;28;20113;-71
2020/12/05 07:13:39;;;;;;;12.18;7.85;;;4.20;85.80;;;;;;4980879;28;20035;-74
2020/12/05 07:16:10;;;;;;;13.52;8.05;;;4.10;85.90;;;;;;4973001;28;20073;-72
2020/12/05 07:18:38;;;;;;;14.30;9.35;;;4.10;86.10;;;;;;4979251;28;20038;-70
2020/12/05 07:21:05;;;;;;;12.07;7.90;;;4.10;86.10;;;;;;4987413;28;20030;-70
2020/12/05 07:23:31;;;;;;;12.50;7.82;;;4.10;86.10;;;;;;4977547;28;20035;-70
2020/12/05 07:25:58;;;;;;;12.30;8.30;;;4.10;85.90;;;;;;4969590;28;20038;-70
2020/12/05 07:28:24;;;;;;;13.88;7.95;;;4.10;86.10;;;;;;4989149;28;20034;-70
2020/12/05 07:30:50;;;;;;;12.55;8.20;;;4.20;86.10;;;;;;4969854;28;20061;-71
2020/12/05 07:33:18;;;;;;;12.90;7.95;;;4.20;86.30;;;;;;4972204;28;20024;-70
2020/12/05 07:35:44;;;;;;;11.93;8.30;;;4.10;86.10;;;;;;4981774;28;20424;-71
2020/12/05 07:38:14;;;;;;;11.25;7.45;;;4.20;86.20;;;;;;4979971;28;20089;-70
2020/12/05 07:40:40;;;;;;;10.75;7.90;;;4.20;86.40;;;;;;4976962;28;20133;-70
2020/12/05 07:43:15;;;;;;;15.05;7.97;;;4.20;86.20;;;;;;4990589;28;20527;-71
2020/12/05 07:45:41;;;;;;;13.02;8.35;;;4.20;86.20;;;;;;4987418;28;20527;-73
2020/12/05 07:48:15;;;;;;;14.63;6.93;;;4.20;86.10;;;;;;4979700;28;20058;-71
2020/12/05 07:50:41;;;;;;;11.88;8.27;;;4.20;85.90;;;;;;4975375;28;20274;-75
2020/12/05 07:53:34;;;;;;;10.13;7.45;;;4.20;86.00;;;;;;4989107;28;20113;-71
2020/12/05 07:56:20;;;;;;;13.23;7.95;;;4.20;86.30;;;;;;4973899;28;20477;-72
2020/12/05 07:58:49;;;;;;;12.88;7.60;;;4.20;86.60;;;;;;4974503;28;20077;-71
2020/12/05 08:01:40;;;;;;;12.25;7.55;;;4.20;86.50;;;;;;4989442;28;20405;-73
2020/12/05 08:04:47;;;;;;;10.55;7.68;;;4.20;86.80;;;;;;4983927;28;20165;-72
2020/12/05 08:07:35;;;;;;;14.27;8.02;;;4.20;87.00;;;;;;4986127;28;20406;-72
2020/12/05 08:10:04;;;;;;;11.00;8.02;;;4.20;86.80;;;;;;4994838;28;20436;-72
2020/12/05 08:13:12;;;;;;;11.90;7.30;;;4.20;86.80;;;;;;5039587;28;20105;-71
2020/12/05 08:15:38;;;;;;;13.10;7.20;;;4.30;86.70;;;;;;4977946;28;20067;-71
2020/12/05 08:18:05;;;;;;;11.40;8.05;;;4.30;86.40;;;;;;4973585;28;20121;-73
2020/12/05 08:20:31;;;;;;;13.90;7.35;;;4.20;86.70;;;;;;4990024;28;20085;-73
2020/12/05 08:22:58;;;;;;;14.00;7.53;;;4.40;86.30;;;;;;5041768;28;20028;-70
2020/12/05 08:25:26;;;;;;;11.15;7.70;;;4.40;86.20;;;;;;4981622;28;20472;-71
2020/12/05 08:27:53;;;;;;;12.73;7.40;;;4.40;86.30;;;;;;4980428;28;20034;-72
2020/12/05 08:30:20;;;;;;;12.32;7.40;;;4.40;86.20;;;;;;4988649;28;20034;-71
2020/12/05 08:32:46;;;;;;;12.20;7.35;;;4.40;86.10;;;;;;4993977;28;20053;-69
2020/12/05 08:35:14;;;;;;;11.82;7.35;;;4.40;86.30;;;;;;5011064;28;20197;-69
2020/12/05 08:37:45;;;;;;;12.20;7.40;;;4.40;86.10;;;;;;4967481;28;20031;-70
2020/12/05 08:40:18;;;;;;;13.70;8.13;;;4.50;86.20;;;;;;5014358;28;20055;-71
2020/12/05 08:42:47;;;;;;;13.82;7.72;;;4.50;85.70;;;;;;4973291;28;20038;-69
2020/12/05 08:45:14;;;;;;;12.02;7.47;;;4.60;85.50;;;;;;4978146;28;20058;-71
2020/12/05 08:47:47;;;;;;;11.77;7.13;;;4.60;85.50;;;;;;4978176;28;20041;-69
2020/12/05 08:50:29;;;;;;;18.15;8.00;;;4.60;85.60;;;;;;4977106;28;20041;-68
2020/12/05 08:53:00;;;;;;;14.27;7.35;;;4.60;85.50;;;;;;4972554;28;20038;-68
2020/12/05 08:55:28;;;;;;;10.40;7.20;;;4.60;85.40;;;;;;4997099;28;20467;-68
2020/12/05 08:58:00;;;;;;;14.25;8.50;;;4.60;85.50;;;;;;4977236;28;20035;-68
2020/12/05 09:00:30;;;;;;;14.75;7.78;;;4.60;85.30;;;;;;4999403;28;20034;-68
2020/12/05 09:02:55;;;;;;;15.00;8.90;;;4.60;85.40;;;;;;4969642;28;20124;-68
2020/12/05 09:05:21;;;;;;;13.57;7.65;;;4.70;85.40;;;;;;4971935;28;20108;-69
2020/12/05 09:07:58;;;;;;;11.00;7.60;;;4.70;85.20;;;;;;4971316;28;20443;-72
2020/12/05 09:10:26;;;;;;;11.05;8.18;;;4.70;85.10;;;;;;4992046;28;20221;-68
2020/12/05 09:12:52;;;;;;;11.68;7.70;;;4.70;85.20;;;;;;4993284;28;20125;-69
2020/12/05 09:15:19;;;;;;;14.73;7.50;;;4.70;85.20;;;;;;4978787;28;20031;-69
2020/12/05 09:17:45;;;;;;;12.65;7.55;;;4.70;85.10;;;;;;4977104;28;20039;-69
2020/12/05 09:20:18;;;;;;;12.25;8.07;;;4.70;85.30;;;;;;5031282;28;20024;-73
2020/12/05 09:22:57;;;;;;;9.88;6.93;;;4.70;85.30;;;;;;5015421;28;20441;-69
2020/12/05 09:25:43;;;;;;;13.23;7.55;;;4.70;85.20;;;;;;4974603;28;20131;-69
2020/12/05 09:28:11;;;;;;;14.23;7.93;;;4.70;85.00;;;;;;4983861;28;20538;-69
2020/12/05 09:30:38;;;;;;;14.38;8.57;;;4.80;85.20;;;;;;4984462;28;20030;-68
2020/12/05 09:33:17;;;;;;;13.52;8.07;;;4.90;85.00;;;;;;4977376;28;20034;-68
2020/12/05 09:35:44;;;;;;;12.02;7.38;;;4.90;84.90;;;;;;5005346;28;20030;-69
2020/12/05 09:38:11;;;;;;;13.57;7.75;;;4.90;84.80;;;;;;4975693;28;20019;-68
2020/12/05 09:40:36;;;;;;;12.80;7.72;;;4.80;84.80;;;;;;4989272;28;20035;-69
2020/12/05 09:43:02;;;;;;;10.55;7.00;;;4.90;84.50;;;;;;4985377;28;20038;-68
2020/12/05 09:45:28;;;;;;;16.35;8.88;;;4.90;84.70;;;;;;4988045;28;20133;-68
2020/12/05 09:47:54;;;;;;;12.07;7.65;;;4.90;84.50;;;;;;4981474;28;20148;-68
2020/12/05 09:50:20;;;;;;;14.80;8.00;;;4.90;84.50;;;;;;5011104;28;20481;-69
2020/12/05 09:52:46;;;;;;;12.63;7.55;;;4.90;84.50;;;;;;5045379;28;20477;-68
2020/12/05 09:55:12;;;;;;;12.63;7.63;;;4.90;84.30;;;;;;4981960;28;20045;-69
2020/12/05 09:57:38;;;;;;;17.13;8.82;;;4.90;84.30;;;;;;5033174;28;20027;-68
2020/12/05 10:00:09;;;;;;;13.30;7.70;;;4.90;84.40;;;;;;5022542;28;20700;-69
2020/12/05 10:02:39;;;;;;;14.23;7.32;;;5.00;84.20;;;;;;4981973;28;20030;-69
2020/12/05 10:05:09;;;;;;;13.32;8.27;;;5.00;84.40;;;;;;5002801;28;20145;-70
2020/12/05 10:07:35;;;;;;;15.13;8.13;;;5.00;84.10;;;;;;4990574;28;20552;-68
2020/12/05 10:10:01;;;;;;;14.23;8.38;;;5.00;84.00;;;;;;4979738;28;20035;-70
2020/12/05 10:12:27;;;;;;;13.32;8.00;;;5.10;83.90;;;;;;5000836;28;20428;-70
2020/12/05 10:14:52;;;;;;;16.60;7.50;;;5.10;83.50;;;;;;5017358;28;20024;-69
2020/12/05 10:17:18;;;;;;;12.73;7.32;;;5.20;83.40;;;;;;4991778;28;20040;-69
2020/12/05 10:19:44;;;;;;;13.48;7.60;;;5.30;83.10;;;;;;5006639;28;20030;-69
2020/12/05 10:22:09;;;;;;;12.50;7.30;;;5.30;82.70;;;;;;4975869;28;20133;-70
2020/12/05 10:24:35;;;;;;;11.48;7.32;;;5.40;82.60;;;;;;4988555;28;20038;-69
2020/12/05 10:27:01;;;;;;;13.27;7.93;;;5.50;82.20;;;;;;4973154;28;20099;-70
2020/12/05 10:29:26;;;;;;;11.57;7.15;;;5.50;81.90;;;;;;4977925;28;20460;-69
2020/12/05 10:31:54;;;;;;;14.68;8.68;;;5.60;81.90;;;;;;4974107;28;20057;-70
2020/12/05 10:34:20;;;;;;;12.88;7.03;;;5.60;81.90;;;;;;4987681;28;20034;-69
2020/12/05 10:36:47;;;;;;;11.90;6.70;;;5.70;81.30;;;;;;4968083;28;20382;-69
2020/12/05 10:39:13;;;;;;;11.27;6.68;;;5.70;81.40;;;;;;4977603;28;20054;-68
2020/12/05 10:41:40;;;;;;;11.75;6.32;;;5.80;81.00;;;;;;4980682;28;20477;-68
2020/12/05 10:44:07;;;;;;;10.10;6.10;;;5.80;80.20;;;;;;4970069;28;20065;-70
2020/12/05 10:46:38;;;;;;;8.70;5.03;;;5.80;79.60;;;;;;4983912;28;20051;-70
2020/12/05 10:49:03;;;;;;;10.60;5.20;;;5.80;79.80;;;;;;4972056;28;20116;-70
2020/12/05 10:51:29;;;;;;;9.35;5.07;;;5.90;78.60;;;;;;5000664;28;20046;-68
2020/12/05 10:53:54;;;;;;;10.95;5.10;;;5.80;78.70;;;;;;4973267;28;20031;-70
2020/12/05 10:56:24;;;;;;;8.88;5.18;;;5.90;78.60;;;;;;4971339;28;20382;-68
2020/12/05 10:58:50;;;;;;;8.27;5.13;;;5.70;78.50;;;;;;4976567;28;20043;-68
2020/12/05 11:01:15;;;;;;;8.75;4.82;;;5.70;78.80;;;;;;4978206;28;20031;-69
2020/12/05 11:03:41;;;;;;;8.30;4.97;;;5.70;78.50;;;;;;4977251;28;20050;-68
2020/12/05 11:06:06;;;;;;;10.57;5.38;;;5.70;79.10;;;;;;4979195;28;20031;-68
2020/12/05 11:08:32;;;;;;;8.80;4.65;;;5.70;78.90;;;;;;4984639;28;20567;-69
2020/12/05 11:10:58;;;;;;;8.68;4.47;;;5.70;78.60;;;;;;4979302;28;20083;-68
2020/12/05 11:13:23;;;;;;;10.00;5.72;;;5.70;78.90;;;;;;4975309;28;20035;-68
2020/12/05 11:15:49;;;;;;;10.70;5.85;;;5.70;78.90;;;;;;4983467;28;20026;-68
2020/12/05 11:18:14;;;;;;;7.40;4.80;;;5.80;78.70;;;;;;5006294;28;20371;-69
2020/12/05 11:20:40;;;;;;;8.88;5.00;;;5.80;78.40;;;;;;4980863;28;20046;-71
2020/12/05 11:23:06;;;;;;;10.25;4.90;;;5.80;78.50;;;;;;4985528;28;20034;-69
2020/12/05 11:25:31;;;;;;;12.32;5.25;;;5.80;78.50;;;;;;4993074;28;20087;-69
2020/12/05 11:27:57;;;;;;;9.80;5.53;;;5.80;78.80;;;;;;4987465;28;20046;-69
2020/12/05 11:30:23;;;;;;;9.15;4.95;;;5.90;78.30;;;;;;4977932;28;20065;-69
2020/12/05 11:32:48;;;;;;;7.88;3.80;;;6.00;78.20;;;;;;4979311;28;20176;-69
2020/12/05 11:35:14;;;;;;;8.43;4.50;;;5.90;77.90;;;;;;4974401;28;20050;-69
2020/12/05 11:37:40;;;;;;;9.10;4.32;;;6.00;77.70;;;;;;4984475;28;20039;-68
2020/12/05 11:40:05;;;;;;;8.60;4.18;;;6.00;77.80;;;;;;4970173;28;20077;-68
2020/12/05 11:42:34;;;;;;;8.93;4.28;;;6.10;77.70;;;;;;4977899;28;20375;-73
2020/12/05 11:45:00;;;;;;;7.82;4.55;;;6.20;77.40;;;;;;4968575;28;20047;-69
2020/12/05 11:47:27;;;;;;;8.95;4.38;;;6.20;77.40;;;;;;5013549;28;20786;-72
2020/12/05 11:49:52;;;;;;;9.52;4.93;;;6.30;77.70;;;;;;4982554;28;20469;-68
2020/12/05 11:52:18;;;;;;;9.13;4.30;;;6.30;78.00;;;;;;4983862;28;20118;-68
2020/12/05 11:54:44;;;;;;;11.50;4.93;;;6.30;76.70;;;;;;4989006;28;20038;-73
2020/12/05 11:57:10;;;;;;;10.35;4.80;;;6.30;76.70;;;;;;5023374;28;20042;-67
2020/12/05 11:59:37;;;;;;;7.32;4.22;;;6.30;77.10;;;;;;5015227;28;20693;-69
2020/12/05 12:02:03;;;;;;;8.00;4.18;;;6.40;77.10;;;;;;4969370;28;20027;-68
2020/12/05 12:04:29;;;;;;;8.73;5.03;;;6.40;76.80;;;;;;5033274;28;20476;-70
2020/12/05 12:06:54;;;;;;;10.15;5.32;;;6.40;77.10;;;;;;4996569;28;20034;-69
2020/12/05 12:09:20;;;;;;;9.90;5.47;;;6.50;77.20;;;;;;4985094;28;20092;-69
2020/12/05 12:11:46;;;;;;;9.88;5.25;;;6.50;76.70;;;;;;5024864;28;20038;-67
2020/12/05 12:14:12;;;;;;;11.15;5.53;;;6.40;76.50;;;;;;5018122;28;20130;-67
2020/12/05 12:16:37;;;;;;;11.93;6.03;;;6.40;77.20;;;;;;5030549;28;20458;-70
2020/12/05 12:19:03;;;;;;;8.43;4.78;;;6.50;77.40;;;;;;4991887;28;20083;-69
2020/12/05 12:21:28;;;;;;;9.75;4.25;;;6.50;76.10;;;;;;5035908;28;20475;-68
2020/12/05 12:23:54;;;;;;;8.35;4.28;;;6.40;75.50;;;;;;5008314;28;20062;-68
2020/12/05 12:26:26;;;;;;;8.52;4.15;;;6.40;75.70;;;;;;4989726;28;25826;-70
2020/12/05 12:28:52;;;;;;;7.30;4.13;;;6.30;75.30;;;;;;5010869;28;20052;-70
2020/12/05 12:31:19;;;;;;;9.65;4.28;;;6.30;74.80;;;;;;4996034;28;20039;-68
2020/12/05 12:33:44;;;;;;;8.13;3.72;;;6.30;75.10;;;;;;5004025;28;20038;-68
2020/12/05 12:36:10;;;;;;;9.27;4.30;;;6.40;74.90;;;;;;5005624;28;20058;-69
2020/12/05 12:38:36;;;;;;;8.38;4.40;;;6.40;75.00;;;;;;5016180;28;20030;-67
2020/12/05 12:41:01;;;;;;;12.88;5.78;;;6.40;74.80;;;;;;4999140;28;20469;-68
2020/12/05 12:43:27;;;;;;;8.95;4.88;;;6.50;74.60;;;;;;4989674;28;20034;-70
2020/12/05 12:45:53;;;;;;;9.65;4.28;;;6.50;74.50;;;;;;4986705;28;20401;-70
2020/12/05 12:50:50;;;;;;;10.50;5.00;;;6.60;74.00;;;;;;5009428;28;20026;-69
2020/12/05 12:53:16;;;;;;;9.30;4.22;;;6.50;74.00;;;;;;4995817;28;20049;-69
2020/12/05 12:55:45;;;;;;;11.00;4.50;;;6.60;73.30;;;;;;4996944;28;20039;-74
2020/12/05 12:58:15;;;;;;;8.77;4.45;;;6.60;73.70;;;;;;4988198;28;20030;-69